Time;durP1;ratioP1;P1;durP2;ratioP2;P2;SDS_P1;SDS_P2;PMS_P1;PMS_P2;Temp;Humidity;BMP_temperature;BMP_pressure;BME280_temperature;BME280_humidity;BME280_pressure;Samples;Min_cycle;Max_cycle;Signal;HPM_P1;HPM_P2
2023/10/09 00:01:44;;;;;;;3.90;2.70;;;;;;;17.77;78.46;100808.00;4993031;28;20493;-48
2023/10/09 00:04:16;;;;;;;5.35;2.90;;;;;;;17.67;79.10;100805.97;5009306;28;20115;-49
2023/10/09 00:06:43;;;;;;;5.00;3.80;;;;;;;17.67;79.73;100797.84;5012476;28;20287;-51
2023/10/09 00:11:49;;;;;;;3.60;2.75;;;;;;;17.66;79.52;100794.31;5012353;28;20022;-48
2023/10/09 00:14:15;;;;;;;4.25;3.30;;;;;;;17.55;79.59;100787.16;5012218;28;20038;-50
2023/10/09 00:17:00;;;;;;;3.85;3.28;;;;;;;17.66;79.24;100797.03;5012239;28;20100;-49
2023/10/09 00:19:36;;;;;;;6.65;4.28;;;;;;;17.41;80.20;100802.94;5012282;28;20022;-51
2023/10/09 00:22:26;;;;;;;5.90;4.30;;;;;;;17.36;80.43;100791.25;5011970;28;20041;-49
2023/10/09 00:25:36;;;;;;;6.28;5.10;;;;;;;17.12;81.59;100775.28;5012358;28;20044;-51
2023/10/09 00:27:49;;;;;;;8.27;5.65;;;;;;;17.14;81.98;100783.94;5009215;28;20070;-47
2023/10/09 00:30:29;;;;;;;6.75;4.00;;;;;;;17.06;82.24;100783.56;5011920;28;20040;-47
2023/10/09 00:41:10;;;;;;;4.25;3.45;;;;;;;16.74;84.35;100786.09;5004450;28;20106;-47
2023/10/09 00:43:43;;;;;;;6.15;4.00;;;;;;;16.75;84.56;100774.22;4992296;28;20030;-47
2023/10/09 00:46:16;;;;;;;6.15;3.83;;;;;;;16.55;85.93;100785.53;4991950;28;20479;-50
2023/10/09 00:48:44;;;;;;;4.45;3.72;;;;;;;16.47;86.45;100777.81;4992116;28;20062;-48
2023/10/09 00:51:17;;;;;;;4.95;3.80;;;;;;;16.48;87.08;100782.97;4991872;28;20430;-51
2023/10/09 00:53:51;;;;;;;5.40;4.55;;;;;;;16.34;88.59;100777.09;4991740;28;20447;-51
2023/10/09 00:59:14;;;;;;;8.98;5.90;;;;;;;16.12;88.49;100789.69;4991944;28;20041;-50
2023/10/09 01:01:55;;;;;;;14.95;13.25;;;;;;;16.02;89.31;100786.81;4991973;28;20066;-51
2023/10/09 01:04:25;;;;;;;6.93;6.13;;;;;;;16.01;90.42;100791.38;5000977;28;20116;-48
2023/10/09 01:09:55;;;;;;;8.82;6.85;;;;;;;15.77;91.01;100798.78;4943812;29;20396;-49
2023/10/09 01:12:21;;;;;;;7.32;5.25;;;;;;;15.76;91.83;100783.63;4979970;28;20069;-50
2023/10/09 01:14:55;;;;;;;6.88;4.90;;;;;;;15.76;91.91;100786.31;5005488;28;20477;-51
2023/10/09 01:17:39;;;;;;;17.13;11.85;;;;;;;15.74;91.90;100795.75;5006782;28;20498;-46
2023/10/09 01:20:16;;;;;;;16.30;12.50;;;;;;;15.70;92.33;100799.97;4991437;28;20601;-49
2023/10/09 01:22:46;;;;;;;22.88;19.75;;;;;;;15.69;91.54;100796.44;5005272;28;20098;-50
2023/10/09 01:25:12;;;;;;;11.43;6.95;;;;;;;15.55;92.28;100798.59;5008656;28;20110;-49
2023/10/09 01:27:40;;;;;;;7.28;6.53;;;;;;;15.52;92.63;100799.06;5013050;28;20053;-50
2023/10/09 01:30:13;;;;;;;6.80;5.97;;;;;;;15.64;91.67;100803.63;5015067;28;20026;-46
2023/10/09 01:32:40;;;;;;;6.35;5.45;;;;;;;15.60;92.11;100797.84;5010360;28;20030;-49
2023/10/09 01:35:21;;;;;;;6.25;5.47;;;;;;;15.46;93.17;100796.50;4995474;28;20443;-49
2023/10/09 01:37:50;;;;;;;8.15;6.45;;;;;;;15.53;92.75;100792.59;5008793;28;20041;-50
2023/10/09 01:40:51;;;;;;;4.80;3.80;;;;;;;15.30;94.32;100796.19;5015075;28;20131;-50
2023/10/09 01:43:10;;;;;;;6.00;4.15;;;;;;;15.32;94.59;100806.72;5011932;28;20038;-51
2023/10/09 01:45:46;;;;;;;5.90;3.97;;;;;;;15.22;94.91;100801.16;5003951;28;20069;-49
2023/10/09 01:48:16;;;;;;;5.80;4.55;;;;;;;15.08;95.55;100789.78;4995247;28;20129;-49
2023/10/09 01:50:43;;;;;;;4.30;3.70;;;;;;;15.08;95.72;100797.88;4994858;28;20041;-48
2023/10/09 01:53:10;;;;;;;5.03;4.28;;;;;;;14.94;96.95;100800.00;4995145;28;20110;-49
2023/10/09 01:55:45;;;;;;;8.38;4.60;;;;;;;14.86;97.22;100796.84;5007273;28;20040;-48
2023/10/09 02:00:49;;;;;;;7.28;4.97;;;;;;;14.68;99.28;100804.00;4994280;28;20096;-51
2023/10/09 02:03:16;;;;;;;6.50;3.80;;;;;;;14.84;98.01;100807.88;4998868;28;20037;-50
2023/10/09 02:05:42;;;;;;;5.32;4.38;;;;;;;14.82;97.94;100807.25;4994659;28;20031;-51
2023/10/09 02:08:10;;;;;;;6.53;4.78;;;;;;;14.74;98.33;100810.31;4994632;28;20145;-49
2023/10/09 02:10:37;;;;;;;4.53;4.13;;;;;;;14.62;98.62;100804.13;4994203;28;20045;-48
2023/10/09 02:13:11;;;;;;;4.57;3.65;;;;;;;14.81;97.79;100811.00;5003162;28;20061;-48
2023/10/09 02:15:45;;;;;;;5.65;4.05;;;;;;;14.65;98.94;100811.72;5011172;28;20444;-49
2023/10/09 02:20:47;;;;;;;11.43;4.60;;;;;;;14.74;98.28;100821.09;5030516;28;20021;-49
2023/10/09 02:23:17;;;;;;;6.53;5.22;;;;;;;14.67;98.82;100820.41;4994373;28;20044;-50
2023/10/09 02:25:43;;;;;;;6.18;4.65;;;;;;;14.74;98.57;100821.09;4994337;28;20037;-49
2023/10/09 02:28:17;;;;;;;5.07;4.60;;;;;;;14.72;98.61;100821.34;4994341;28;20030;-50
2023/10/09 02:30:51;;;;;;;6.80;4.90;;;;;;;14.75;99.10;100831.63;4993816;28;20124;-48
2023/10/09 02:33:18;;;;;;;5.50;4.00;;;;;;;14.70;98.86;100825.31;4993926;28;20022;-49
2023/10/09 02:35:50;;;;;;;5.18;3.88;;;;;;;14.70;98.51;100830.69;4993990;28;20027;-49
2023/10/09 02:38:17;;;;;;;6.07;4.40;;;;;;;14.66;98.57;100829.53;4993833;28;20023;-45
2023/10/09 02:43:46;;;;;;;6.03;3.95;;;;;;;14.70;98.32;100814.53;4993821;28;20439;-51
2023/10/09 02:46:34;;;;;;;4.82;4.40;;;;;;;14.58;99.05;100819.09;4993807;28;20026;-50
2023/10/09 02:49:03;;;;;;;7.20;4.60;;;;;;;14.61;99.45;100818.66;4993277;28;20053;-49
2023/10/09 02:51:41;;;;;;;6.28;4.80;;;;;;;14.60;98.78;100822.38;4993552;28;20116;-49
2023/10/09 02:54:18;;;;;;;5.55;4.03;;;;;;;14.59;99.39;100823.44;4993459;28;20052;-49
2023/10/09 02:56:48;;;;;;;7.38;4.80;;;;;;;14.54;99.12;100829.50;4993347;28;20057;-49
2023/10/09 02:59:14;;;;;;;4.93;3.70;;;;;;;14.50;99.26;100848.03;5001666;28;20370;-49
2023/10/09 03:01:41;;;;;;;4.10;3.58;;;;;;;14.38;99.51;100844.47;5012418;28;20406;-46
2023/10/09 03:04:10;;;;;;;5.70;3.92;;;;;;;14.38;99.91;100839.06;5012703;28;20022;-48
2023/10/09 03:06:40;;;;;;;4.60;4.10;;;;;;;14.36;100.00;100841.16;5008157;28;20021;-49
2023/10/09 03:09:16;;;;;;;4.88;4.18;;;;;;;14.46;100.00;100840.59;4993269;28;20031;-47
2023/10/09 03:12:00;;;;;;;5.22;4.68;;;;;;;14.31;100.00;100849.09;5005921;28;20022;-47
2023/10/09 03:14:28;;;;;;;5.38;4.10;;;;;;;14.39;99.48;100859.56;5010707;28;20041;-47
2023/10/09 03:16:58;;;;;;;4.72;4.30;;;;;;;14.33;99.45;100857.78;5010503;28;20030;-47
2023/10/09 03:19:29;;;;;;;6.50;4.47;;;;;;;14.30;99.80;100860.09;5009183;28;20450;-49
2023/10/09 03:21:58;;;;;;;4.32;3.50;;;;;;;14.38;99.37;100866.00;5031234;28;20490;-48
2023/10/09 03:24:35;;;;;;;6.28;3.25;;;;;;;14.41;98.91;100870.09;5024728;28;20034;-49
2023/10/09 03:27:01;;;;;;;4.03;3.60;;;;;;;14.36;99.34;100873.47;5013214;28;20069;-48
2023/10/09 03:29:27;;;;;;;5.13;3.00;;;;;;;14.46;98.67;100883.69;5012860;28;20112;-48
2023/10/09 03:31:56;;;;;;;4.90;3.03;;;;;;;14.41;98.58;100879.00;5012670;28;20108;-49
2023/10/09 03:34:24;;;;;;;4.32;3.17;;;;;;;14.34;99.10;100874.75;5012871;28;20060;-49
2023/10/09 03:36:59;;;;;;;3.95;2.92;;;;;;;14.36;98.90;100872.66;5002855;28;20105;-50
2023/10/09 03:39:41;;;;;;;6.82;3.50;;;;;;;14.25;99.07;100879.63;4997383;28;20101;-49
2023/10/09 03:42:19;;;;;;;8.55;3.50;;;;;;;14.16;99.60;100878.34;5032006;28;20116;-50
2023/10/09 03:44:52;;;;;;;4.53;3.03;;;;;;;14.26;99.23;100873.19;5032439;28;20029;-50
2023/10/09 03:47:22;;;;;;;5.88;3.60;;;;;;;14.34;98.69;100875.59;5030301;28;20112;-48
2023/10/09 03:49:53;;;;;;;4.90;3.03;;;;;;;14.47;97.81;100886.16;5012783;28;20046;-50
2023/10/09 03:52:19;;;;;;;4.88;3.00;;;;;;;14.42;97.49;100882.50;5012527;28;20088;-51
2023/10/09 03:54:46;;;;;;;4.13;2.92;;;;;;;14.49;97.43;100889.47;5021812;28;20029;-50
2023/10/09 03:57:19;;;;;;;3.38;2.55;;;;;;;14.47;97.13;100891.56;4999897;28;20034;-48
2023/10/09 03:59:49;;;;;;;5.68;2.83;;;;;;;14.48;96.76;100895.06;4992778;28;20536;-50
2023/10/09 04:02:18;;;;;;;7.63;3.80;;;;;;;14.41;96.96;100895.16;4991726;28;20018;-50
2023/10/09 04:04:46;;;;;;;5.22;2.72;;;;;;;14.55;96.34;100895.81;4992315;28;20109;-50
2023/10/09 04:07:16;;;;;;;2.70;2.50;;;;;;;14.49;96.97;100897.56;4992227;28;20293;-50
2023/10/09 04:09:47;;;;;;;4.65;2.80;;;;;;;14.53;95.71;100912.19;5004237;28;20025;-50
2023/10/09 04:12:25;;;;;;;3.30;2.50;;;;;;;14.51;95.39;100925.06;5030681;28;20037;-50
2023/10/09 04:14:54;;;;;;;3.40;2.63;;;;;;;14.71;93.91;100926.63;5006936;28;20058;-50
2023/10/09 04:17:34;;;;;;;3.65;2.60;;;;;;;14.58;93.47;100934.91;4992067;28;20483;-50
2023/10/09 04:23:34;;;;;;;3.78;2.38;;;;;;;14.53;94.64;100947.19;5012162;28;20109;-47
2023/10/09 04:25:41;;;;;;;3.78;2.92;;;;;;;14.50;94.79;100944.97;5009842;28;20130;-50
2023/10/09 04:28:09;;;;;;;3.55;2.50;;;;;;;14.45;95.04;100942.13;5011768;28;20447;-50
2023/10/09 04:30:40;;;;;;;3.05;2.65;;;;;;;14.47;94.98;100939.22;5011467;28;20398;-50
2023/10/09 04:33:11;;;;;;;7.18;3.05;;;;;;;14.48;94.79;100952.44;5012162;28;20053;-49
2023/10/09 04:35:38;;;;;;;4.68;2.80;;;;;;;14.29;96.01;100942.75;5011893;28;20364;-50
2023/10/09 04:38:05;;;;;;;3.83;2.85;;;;;;;14.29;95.60;100932.00;5011552;28;20029;-50
2023/10/09 04:40:48;;;;;;;6.57;2.85;;;;;;;14.41;94.93;100929.34;5011386;28;20122;-50
2023/10/09 04:43:20;;;;;;;4.55;2.92;;;;;;;14.34;95.29;100921.34;5012081;28;20026;-47
2023/10/09 04:46:12;;;;;;;3.60;2.53;;;;;;;14.27;96.04;100931.41;5009795;23;20073;-48
2023/10/09 04:48:38;;;;;;;5.53;2.63;;;;;;;14.38;96.20;100936.00;4992142;28;20035;-47
2023/10/09 04:51:21;;;;;;;3.45;2.80;;;;;;;14.36;95.95;100946.16;4979625;28;20423;-49
2023/10/09 04:53:54;;;;;;;3.67;2.53;;;;;;;14.39;95.69;100945.72;4972637;28;20407;-47
2023/10/09 04:56:24;;;;;;;2.95;2.50;;;;;;;14.42;95.41;100945.25;4976014;28;20105;-49
2023/10/09 04:59:03;;;;;;;2.95;2.33;;;;;;;14.44;95.40;100961.22;4991663;28;20089;-51
2023/10/09 05:01:36;;;;;;;2.35;2.15;;;;;;;14.42;95.28;100964.09;4992380;28;20037;-48
2023/10/09 05:04:15;;;;;;;4.15;2.08;;;;;;;14.49;95.12;100969.44;4996057;28;20073;-50
2023/10/09 05:06:55;;;;;;;2.88;2.53;;;;;;;14.51;95.19;100972.72;4996145;28;20422;-47
2023/10/09 05:09:22;;;;;;;3.78;2.10;;;;;;;14.48;95.05;100968.59;4995515;28;20382;-51
2023/10/09 05:14:26;;;;;;;3.65;2.50;;;;;;;14.20;95.57;100973.72;4995522;28;20030;-48
2023/10/09 05:16:54;;;;;;;3.80;2.25;;;;;;;14.33;95.42;100970.88;4995517;28;20116;-51
2023/10/09 05:22:38;;;;;;;3.95;2.50;;;;;;;14.33;94.96;100978.97;4993384;28;20399;-50
2023/10/09 05:25:16;;;;;;;3.05;2.33;;;;;;;14.15;96.15;100979.78;4983272;28;20070;-51
2023/10/09 05:27:45;;;;;;;3.75;2.75;;;;;;;14.02;96.60;100974.56;4995757;28;20102;-49
2023/10/09 05:30:26;;;;;;;3.15;2.47;;;;;;;14.04;96.82;100974.34;4995351;28;20434;-49
2023/10/09 05:33:27;;;;;;;2.60;2.20;;;;;;;14.07;96.39;100973.91;4995068;28;20022;-50
2023/10/09 05:36:05;;;;;;;2.63;2.17;;;;;;;14.23;94.97;100986.75;4995032;28;20030;-51
2023/10/09 05:38:35;;;;;;;2.83;2.40;;;;;;;14.21;95.20;100984.28;4995356;28;20475;-50
2023/10/09 05:41:31;;;;;;;2.67;2.47;;;;;;;14.17;96.07;100983.09;4994912;28;20034;-48
2023/10/09 05:46:36;;;;;;;3.15;2.22;;;;;;;14.21;96.40;100983.44;4994316;28;20064;-48
2023/10/09 05:49:19;;;;;;;2.30;2.10;;;;;;;14.28;96.42;100970.75;4994760;28;20058;-51
2023/10/09 05:51:53;;;;;;;4.05;2.45;;;;;;;14.23;95.86;100979.50;4994749;28;20375;-48
2023/10/09 05:58:42;;;;;;;5.25;2.30;;;;;;;14.33;96.15;100972.75;4994931;28;20513;-50
2023/10/09 06:05:51;;;;;;;2.90;1.90;;;;;;;14.32;95.32;100990.75;4995163;28;20049;-51
2023/10/09 06:08:16;;;;;;;2.30;2.10;;;;;;;14.20;95.11;100981.81;4994482;28;20030;-50
2023/10/09 06:10:42;;;;;;;3.50;2.15;;;;;;;14.20;95.10;100971.84;4994425;28;20501;-51
2023/10/09 06:13:37;;;;;;;2.67;2.20;;;;;;;14.28;95.13;100968.03;4993824;28;20026;-49
2023/10/09 06:16:19;;;;;;;3.30;2.45;;;;;;;14.23;95.59;100974.09;4994483;28;20032;-51
2023/10/09 06:18:53;;;;;;;3.72;2.03;;;;;;;14.20;95.71;100987.19;4993842;28;20479;-49
2023/10/09 06:21:47;;;;;;;2.40;1.80;;;;;;;14.23;95.61;101000.22;4994014;28;20077;-48
2023/10/09 06:24:16;;;;;;;2.67;1.77;;;;;;;14.21;95.70;101021.97;4994126;28;20101;-49
2023/10/09 06:29:36;;;;;;;3.88;2.65;;;;;;;14.26;95.81;101030.19;4983131;28;20073;-49
2023/10/09 06:34:46;;;;;;;3.10;2.17;;;;;;;14.36;94.73;101032.34;4993895;28;20038;-49
2023/10/09 06:45:08;;;;;;;3.78;2.15;;;;;;;14.50;93.95;101039.25;4993780;28;20558;-51
2023/10/09 06:47:41;;;;;;;2.30;2.10;;;;;;;14.45;93.85;101041.75;5019099;23;20045;-51
2023/10/09 06:55:48;;;;;;;3.53;2.42;;;;;;;14.48;93.04;101043.19;5013499;28;20076;-49
2023/10/09 06:58:28;;;;;;;3.63;2.58;;;;;;;14.59;92.47;101045.13;5013044;28;20030;-51
2023/10/09 07:03:34;;;;;;;5.03;2.17;;;;;;;14.41;91.89;101045.13;5013221;28;20033;-50
2023/10/09 07:06:09;;;;;;;2.97;2.10;;;;;;;14.52;91.54;101047.09;5013112;28;20028;-50
2023/10/09 07:08:44;;;;;;;3.95;3.17;;;;;;;14.45;91.20;101055.22;5012528;28;20381;-51
2023/10/09 07:11:57;;;;;;;3.65;2.22;;;;;;;14.55;91.08;101057.44;5012965;28;20026;-51
2023/10/09 07:22:29;;;;;;;2.38;1.75;;;;;;;14.53;90.44;101035.25;5013074;28;20079;-48
2023/10/09 07:24:57;;;;;;;2.60;1.57;;;;;;;14.39;90.57;101029.22;5011830;28;20030;-50
2023/10/09 07:38:44;;;;;;;2.85;1.70;;;;;;;14.66;90.48;101037.81;5012625;28;20021;-48
2023/10/09 07:43:39;;;;;;;3.05;2.30;;;;;;;14.57;90.28;101041.03;4992701;28;20394;-49
2023/10/09 07:46:30;;;;;;;2.83;1.98;;;;;;;14.67;90.09;101046.69;4993947;28;20371;-50
2023/10/09 07:49:08;;;;;;;2.88;2.05;;;;;;;14.68;89.87;101038.38;4992612;28;20097;-51
2023/10/09 07:51:37;;;;;;;2.22;1.90;;;;;;;14.46;90.66;101035.31;4992204;28;20030;-50
2023/10/09 07:54:09;;;;;;;1.77;1.50;;;;;;;14.58;90.39;101037.28;4992372;28;20034;-48
2023/10/09 07:56:53;;;;;;;2.10;1.50;;;;;;;14.57;90.10;101046.41;4992719;28;20478;-51
2023/10/09 07:59:19;;;;;;;1.95;1.60;;;;;;;14.49;89.83;101037.63;4992605;28;20368;-51
2023/10/09 08:02:02;;;;;;;1.63;1.52;;;;;;;14.52;90.15;101036.31;4992240;28;20033;-49
2023/10/09 08:04:39;;;;;;;1.70;1.40;;;;;;;14.40;90.57;101044.31;4993209;28;20045;-49
2023/10/09 08:07:34;;;;;;;2.83;1.55;;;;;;;14.31;91.01;101050.22;4992590;28;20030;-49
2023/10/09 08:18:18;;;;;;;2.63;2.15;;;;;;;14.47;91.14;101068.50;4993292;28;20026;-51
2023/10/09 08:23:33;;;;;;;3.83;2.35;;;;;;;14.66;90.02;101063.91;4992191;28;20052;-49
2023/10/09 08:26:14;;;;;;;2.38;1.98;;;;;;;14.65;89.96;101059.56;4992159;28;20097;-47
2023/10/09 08:28:45;;;;;;;2.65;2.40;;;;;;;14.65;89.77;101060.38;4991902;28;20022;-48
2023/10/09 08:31:34;;;;;;;5.55;2.50;;;;;;;14.65;89.54;101056.88;5005196;28;20033;-47
2023/10/09 08:34:01;;;;;;;6.10;2.97;;;;;;;14.60;89.61;101057.53;5010027;28;20042;-47
2023/10/09 08:36:42;;;;;;;3.63;3.20;;;;;;;14.62;89.58;101060.84;5015708;28;20022;-49
2023/10/09 08:39:25;;;;;;;4.68;3.25;;;;;;;14.59;90.27;101058.59;5018112;28;20486;-47
2023/10/09 08:41:52;;;;;;;2.53;2.17;;;;;;;14.78;89.37;101054.00;5007913;28;20474;-49
2023/10/09 08:44:23;;;;;;;2.83;2.50;;;;;;;14.87;89.12;101047.22;4998355;28;20045;-48
2023/10/09 08:46:50;;;;;;;3.90;2.90;;;;;;;14.89;89.26;101041.63;4998509;28;20069;-47
2023/10/09 08:49:18;;;;;;;4.80;2.53;;;;;;;14.94;88.64;101047.16;4998883;28;20036;-50
2023/10/09 08:51:47;;;;;;;3.30;2.85;;;;;;;14.89;88.77;101042.44;4998000;28;20152;-49
2023/10/09 08:54:14;;;;;;;3.25;2.95;;;;;;;14.79;89.62;101042.19;4998502;28;20482;-49
2023/10/09 08:56:51;;;;;;;3.03;2.53;;;;;;;14.99;89.11;101044.56;4999276;28;20072;-47
2023/10/09 08:59:19;;;;;;;4.43;3.50;;;;;;;15.01;88.66;101047.88;4998323;28;20391;-50
2023/10/09 09:01:51;;;;;;;5.38;3.15;;;;;;;15.11;87.87;101036.53;4997996;28;20030;-50
2023/10/09 09:04:40;;;;;;;3.97;3.20;;;;;;;15.09;87.93;101044.84;4998632;28;20038;-50
2023/10/09 09:07:28;;;;;;;4.07;3.63;;;;;;;15.07;88.15;101040.75;4998480;28;20030;-49
2023/10/09 09:10:46;;;;;;;5.28;2.95;;;;;;;15.05;88.39;101049.06;4997905;28;20050;-49
2023/10/09 09:12:45;;;;;;;5.45;3.72;;;;;;;15.16;88.09;101045.56;4971598;28;20034;-49
2023/10/09 09:15:26;;;;;;;4.55;3.10;;;;;;;15.11;87.90;101036.53;4978867;28;20475;-50
2023/10/09 09:18:10;;;;;;;4.15;3.30;;;;;;;15.03;88.83;101046.56;4978695;28;20479;-50
2023/10/09 09:20:40;;;;;;;4.65;3.47;;;;;;;14.99;88.52;101042.72;4988917;28;20026;-50
2023/10/09 09:23:12;;;;;;;3.58;3.20;;;;;;;15.13;87.42;101048.72;4998135;28;20030;-47
2023/10/09 09:26:18;;;;;;;5.95;3.40;;;;;;;15.02;88.44;101038.72;4999295;28;20022;-50
2023/10/09 09:28:54;;;;;;;4.22;3.00;;;;;;;15.21;87.17;101042.16;4998086;28;20042;-48
2023/10/09 09:31:22;;;;;;;4.55;2.63;;;;;;;15.18;87.68;101043.47;4997950;28;20042;-50
2023/10/09 09:34:03;;;;;;;4.18;3.30;;;;;;;15.10;88.55;101042.97;4998468;28;20069;-50
2023/10/09 09:36:34;;;;;;;5.07;2.70;;;;;;;15.11;88.60;101036.53;5000291;28;20037;-49
2023/10/09 09:39:01;;;;;;;4.80;2.90;;;;;;;15.24;88.28;101037.13;5005854;28;20097;-50
2023/10/09 09:41:27;;;;;;;3.85;3.13;;;;;;;15.14;88.92;101018.00;4997481;28;20061;-48
2023/10/09 09:44:01;;;;;;;3.65;2.80;;;;;;;15.23;88.21;101013.09;4997902;28;20041;-50
2023/10/09 09:46:33;;;;;;;2.58;2.25;;;;;;;15.34;87.15;101015.00;4995613;23;20047;-50
2023/10/09 09:49:16;;;;;;;6.28;2.50;;;;;;;15.34;87.35;101009.59;4975536;28;20023;-48
2023/10/09 09:51:46;;;;;;;4.28;2.40;;;;;;;15.15;88.01;101010.72;4959883;28;20045;-48
2023/10/09 09:54:16;;;;;;;4.03;2.35;;;;;;;15.11;87.78;100996.09;4994617;28;20028;-48
2023/10/09 09:56:51;;;;;;;4.00;2.00;;;;;;;15.17;86.87;101003.25;4994679;28;20081;-50
2023/10/09 09:59:28;;;;;;;3.95;2.55;;;;;;;15.11;87.41;100999.59;4994898;28;20118;-50
2023/10/09 10:01:58;;;;;;;4.38;2.63;;;;;;;15.14;87.47;100987.53;4994356;28;20030;-50
2023/10/09 10:04:35;;;;;;;3.75;2.00;;;;;;;15.11;87.88;100983.44;4994700;28;20018;-48
2023/10/09 10:07:06;;;;;;;3.70;2.50;;;;;;;15.15;87.45;100981.06;4994518;28;20105;-46
2023/10/09 10:09:39;;;;;;;3.20;2.03;;;;;;;15.27;86.43;100992.72;4994429;28;20027;-49
2023/10/09 10:12:09;;;;;;;3.53;2.60;;;;;;;15.14;86.85;100990.22;4994710;28;20081;-50
2023/10/09 10:15:28;;;;;;;2.85;2.15;;;;;;;15.16;86.42;100998.91;4994529;28;20034;-50
2023/10/09 10:17:59;;;;;;;4.13;1.90;;;;;;;15.19;85.81;101011.91;4990266;28;20034;-51
2023/10/09 10:20:25;;;;;;;3.63;2.00;;;;;;;15.24;85.85;101012.03;4994096;28;20168;-51
2023/10/09 10:23:18;;;;;;;5.88;2.78;;;;;;;15.18;86.50;101004.88;4993857;28;20027;-50
2023/10/09 10:25:59;;;;;;;3.78;2.00;;;;;;;15.24;85.84;100994.00;4994165;28;20471;-47
2023/10/09 10:28:42;;;;;;;3.10;2.28;;;;;;;15.26;85.41;100997.25;4994197;28;20018;-47
2023/10/09 10:31:09;;;;;;;5.00;2.85;;;;;;;15.22;85.57;101000.69;4982828;28;20399;-50
2023/10/09 10:33:54;;;;;;;5.95;2.63;;;;;;;15.22;85.24;101001.50;4974694;28;20030;-48
2023/10/09 10:36:26;;;;;;;4.68;2.75;;;;;;;15.14;85.71;100993.75;4974485;28;20125;-49
2023/10/09 10:39:05;;;;;;;3.97;2.17;;;;;;;15.19;85.71;101012.75;4971730;28;20039;-47
2023/10/09 10:41:36;;;;;;;4.93;2.58;;;;;;;15.18;85.92;101008.41;4973359;28;20503;-50
2023/10/09 10:44:53;;;;;;;4.15;2.55;;;;;;;15.38;85.14;101018.88;4974508;28;20030;-48
2023/10/09 10:46:52;;;;;;;9.38;3.15;;;;;;;15.16;86.32;101017.78;4967181;28;20035;-50
2023/10/09 10:49:22;;;;;;;4.22;2.50;;;;;;;15.34;86.22;101028.47;4974407;28;20502;-47
2023/10/09 10:51:53;;;;;;;3.53;2.65;;;;;;;15.29;86.57;101026.47;4956853;28;20023;-50
2023/10/09 10:56:57;;;;;;;7.68;3.35;;;;;;;15.05;86.92;101027.50;4955253;28;20037;-50
2023/10/09 10:59:26;;;;;;;6.32;3.35;;;;;;;15.10;85.92;101008.72;4957103;28;20026;-47
2023/10/09 11:01:57;;;;;;;6.03;2.85;;;;;;;15.15;85.64;101005.34;4974414;28;20027;-48
2023/10/09 11:04:27;;;;;;;3.95;2.50;;;;;;;15.09;86.44;101011.66;4974224;28;20081;-49
2023/10/09 11:07:06;;;;;;;3.90;2.75;;;;;;;15.06;86.40;101010.25;4973743;28;20102;-49
2023/10/09 11:12:44;;;;;;;6.97;2.70;;;;;;;15.09;86.72;101022.44;4973850;28;20191;-49
2023/10/09 11:18:07;;;;;;;6.57;3.20;;;;;;;15.11;87.75;101014.97;4983473;28;20060;-50
2023/10/09 11:20:36;;;;;;;4.32;2.97;;;;;;;15.09;87.47;101012.47;4993183;28;20038;-48
2023/10/09 11:23:35;;;;;;;6.07;3.00;;;;;;;15.13;87.47;101010.97;4973881;28;20053;-48
2023/10/09 11:25:52;;;;;;;4.43;2.95;;;;;;;15.23;86.27;100996.94;4973495;28;20047;-51
2023/10/09 11:31:11;;;;;;;3.83;2.38;;;;;;;15.13;86.93;100991.28;4974658;28;20133;-51
2023/10/09 11:33:51;;;;;;;4.38;2.83;;;;;;;15.10;86.29;100984.47;4992577;28;20030;-50
2023/10/09 11:36:27;;;;;;;3.35;2.03;;;;;;;15.15;85.30;100979.19;4992323;28;20114;-49
2023/10/09 11:39:13;;;;;;;3.45;2.15;;;;;;;15.20;85.63;100981.19;4992861;28;20018;-49
2023/10/09 11:41:42;;;;;;;3.00;2.28;;;;;;;15.27;85.21;100973.84;4992643;28;20113;-49
2023/10/09 11:44:33;;;;;;;3.63;2.10;;;;;;;15.29;84.53;100960.94;4993027;28;20037;-46
2023/10/09 11:52:35;;;;;;;3.95;2.63;;;;;;;15.30;84.91;100960.69;4973151;28;20113;-48
2023/10/09 11:55:03;;;;;;;8.75;2.88;;;;;;;15.24;85.24;100969.72;4973522;28;20038;-49
2023/10/09 11:57:33;;;;;;;5.45;2.92;;;;;;;15.25;84.97;100965.16;4973167;28;20042;-49
2023/10/09 12:00:44;;;;;;;6.43;2.60;;;;;;;15.35;84.56;100959.19;4972501;28;20034;-49
2023/10/09 12:03:04;;;;;;;2.95;2.20;;;;;;;15.38;84.31;100951.44;4972055;28;20038;-49
2023/10/09 12:05:32;;;;;;;3.55;2.35;;;;;;;15.46;83.40;100959.16;4973668;28;20109;-49
2023/10/09 12:08:01;;;;;;;4.28;2.47;;;;;;;15.40;83.83;100962.81;4973180;28;20467;-48
2023/10/09 12:10:29;;;;;;;3.28;2.40;;;;;;;15.42;83.85;100958.00;4981503;28;20038;-49
2023/10/09 12:12:58;;;;;;;3.58;2.20;;;;;;;15.43;83.46;100959.63;4992721;28;20109;-50
2023/10/09 12:15:36;;;;;;;4.70;2.63;;;;;;;15.47;83.27;100950.03;4984550;28;20494;-47
2023/10/09 12:18:06;;;;;;;9.60;3.13;;;;;;;15.47;83.37;100947.31;4971392;28;20122;-47
2023/10/09 12:20:34;;;;;;;4.05;1.98;;;;;;;15.42;82.93;100941.81;4992178;28;20093;-48
2023/10/09 12:23:04;;;;;;;4.05;2.83;;;;;;;15.39;83.58;100942.28;4992256;28;20498;-49
2023/10/09 12:25:31;;;;;;;3.13;2.13;;;;;;;15.48;83.29;100940.88;4974511;28;20031;-48
2023/10/09 12:28:02;;;;;;;3.80;2.90;;;;;;;15.45;83.86;100938.66;4973004;28;20030;-49
2023/10/09 12:30:30;;;;;;;4.93;2.60;;;;;;;15.49;83.77;100942.53;4971801;28;20069;-49
2023/10/09 12:32:57;;;;;;;4.90;3.10;;;;;;;15.46;83.48;100948.38;4962082;28;20097;-49
2023/10/09 12:35:25;;;;;;;6.20;3.00;;;;;;;15.64;83.28;100949.31;4965968;28;20054;-49
2023/10/09 12:37:54;;;;;;;4.53;3.00;;;;;;;15.62;83.79;100933.34;4953768;28;20126;-47
2023/10/09 12:40:28;;;;;;;4.35;3.47;;;;;;;15.41;85.06;100933.97;4969729;28;20034;-48
2023/10/09 12:42:55;;;;;;;4.68;2.80;;;;;;;15.45;84.84;100933.25;4973194;28;20053;-49
2023/10/09 12:45:26;;;;;;;3.33;2.53;;;;;;;15.58;83.74;100930.31;4973136;28;20043;-48
2023/10/09 12:47:58;;;;;;;5.57;2.90;;;;;;;15.59;83.85;100933.81;4973179;28;20046;-48
2023/10/09 12:50:33;;;;;;;6.40;2.83;;;;;;;15.50;84.19;100932.56;4972840;28;20058;-50
2023/10/09 12:53:06;;;;;;;5.47;3.08;;;;;;;15.50;83.26;100936.06;4953675;28;20031;-48
2023/10/09 12:55:42;;;;;;;3.28;2.47;;;;;;;15.54;83.24;100948.00;4953550;28;20404;-49
2023/10/09 12:58:14;;;;;;;4.70;3.20;;;;;;;15.42;84.02;100936.41;4953599;28;20494;-49
2023/10/09 13:00:48;;;;;;;3.60;2.75;;;;;;;15.51;83.98;100947.69;4953618;28;20405;-47
2023/10/09 13:03:18;;;;;;;3.20;2.57;;;;;;;15.42;84.15;100951.78;4953524;28;20041;-49
2023/10/09 13:05:56;;;;;;;3.97;2.80;;;;;;;15.43;84.30;100937.22;4953564;29;20491;-46
2023/10/09 13:08:23;;;;;;;3.65;2.90;;;;;;;15.38;84.21;100939.81;4959772;28;20373;-47
2023/10/09 13:11:00;;;;;;;3.25;2.55;;;;;;;15.38;83.79;100929.03;4952530;28;20030;-47
2023/10/09 13:13:50;;;;;;;4.47;3.28;;;;;;;15.37;83.81;100928.19;4952885;28;20023;-49
2023/10/09 13:16:23;;;;;;;6.55;3.22;;;;;;;15.34;84.08;100928.69;4971861;28;20114;-52
2023/10/09 13:18:59;;;;;;;4.97;2.63;;;;;;;15.34;84.36;100927.88;4969994;28;20035;-48
2023/10/09 13:21:37;;;;;;;3.55;2.75;;;;;;;15.36;84.10;100928.44;4968385;28;20427;-47
2023/10/09 13:24:03;;;;;;;3.25;2.80;;;;;;;15.36;84.35;100926.56;4975411;28;20034;-48
2023/10/09 13:26:30;;;;;;;5.28;3.40;;;;;;;15.41;83.92;100918.59;4967095;28;20062;-50
2023/10/09 13:28:57;;;;;;;5.55;2.67;;;;;;;15.30;84.53;100920.25;4969729;28;20475;-49
2023/10/09 13:31:26;;;;;;;3.92;2.88;;;;;;;15.29;84.73;100939.38;4975275;28;20143;-49
2023/10/09 13:33:56;;;;;;;3.88;3.25;;;;;;;15.20;85.78;100954.25;4975557;28;20109;-54
2023/10/09 13:36:33;;;;;;;3.88;2.85;;;;;;;15.39;85.17;100953.09;4975553;28;20041;-48
2023/10/09 13:42:07;;;;;;;3.80;2.65;;;;;;;15.24;84.91;100988.59;4974978;28;20399;-47
2023/10/09 13:44:34;;;;;;;2.35;2.08;;;;;;;15.19;84.69;100998.44;4974443;28;20491;-48
2023/10/09 13:47:18;;;;;;;3.35;1.70;;;;;;;15.22;84.59;100996.13;4973929;28;20051;-48
2023/10/09 13:49:45;;;;;;;4.68;2.28;;;;;;;15.27;84.80;100987.31;4974994;28;20042;-46
2023/10/09 13:52:17;;;;;;;3.08;2.17;;;;;;;15.36;83.71;100988.59;4975028;28;20076;-49
2023/10/09 13:54:48;;;;;;;3.40;1.80;;;;;;;15.32;83.92;100990.13;4974616;28;20063;-48